x

8570283 - Ocean City Inlet, Md (ocim2) Weather Station

3:54pm - Fri 15th Dec 2017 All times are EST. -5 hours from GMT.

  • Wind
    8mph, 10mph gusts
  • Sea Temp 43°f
  • Air Temp 42°f
  • Sea Pressure 1010.9mb
  • 8570283 - Ocean City Inlet, Md
  • 8570283 - Ocean City Inlet, Md

More Historic Weather Station data

Upgrade to MSW Pro to gain access to the past 30 days of data for over 8000 Wavebouys and Weather Stations around the globe.

Join

Comparision Forecast

View Surf forecast
   
Fri 12/15 3:54pm 8 10 mph 1010.9mb 43f 42f
3:48pm 7 11 mph 1011mb 43f 42f
3:42pm 6 8 mph 1011mb 43f 42f
3:36pm 5 9 mph 1010.8mb 43f 42f
3:30pm 8 11 mph 1010.6mb 43f 42f
3:24pm 8 11 mph 1010.8mb 43f 42f
3:18pm 6 8 mph 1011mb 43f 42f
3:12pm 6 8 mph 1011.2mb 43f 42f
3:06pm 5 8 mph 1011.5mb 43f 42f
3:00pm 6 10 mph 1011.5mb 43f 42f
2:54pm 5 7 mph 1011.7mb 43f 42f
2:48pm 6 9 mph - 43f 42f
2:42pm 5 9 mph - 43f 42f
2:36pm 5 7 mph - 43f 42f
2:30pm 6 8 mph 1011.6mb 43f 42f
2:24pm 7 10 mph 1011.6mb 44f 42f
2:18pm 7 10 mph 1011.7mb 44f 42f
2:12pm 3 6 mph 1011.7mb 44f 42f
2:06pm 6 10 mph 1011.7mb 44f 42f
2:00pm 6 9 mph 1011.9mb 44f 42f
1:54pm 6 10 mph 1012mb 44f 42f
1:48pm 6 10 mph 1012.1mb 44f 42f
1:42pm 7 9 mph 1012.4mb 44f 42f
1:36pm 8 11 mph 1012.3mb 44f 42f
1:30pm 7 9 mph 1012.4mb 44f 42f
1:24pm 6 7 mph 1012.6mb 44f 42f
1:18pm 8 13 mph 1012.7mb 44f 42f
1:12pm 8 11 mph 1013mb 44f 42f
1:06pm 9 14 mph 1012.9mb 44f 42f
1:00pm 7 11 mph 1013mb 44f 42f
12:54pm 8 13 mph 1013mb 44f 42f
12:48pm 10 14 mph 1013.3mb 44f 42f
12:42pm 10 14 mph 1013.5mb 44f 41f
12:36pm 6 9 mph 1013.8mb 45f 42f
12:30pm 8 11 mph 1014mb 45f 41f
12:24pm 7 11 mph 1014.2mb 45f 41f
12:18pm 7 9 mph 1014.5mb 45f 41f
12:12pm 8 11 mph 1014.5mb 45f 41f
12:06pm 9 15 mph 1014.6mb 45f 41f
12:00pm 9 13 mph 1014.9mb 45f 41f
11:54am 7 10 mph 1015.1mb 45f 40f
11:48am 7 9 mph 1015.3mb 45f 40f
11:42am 8 10 mph 1015.5mb 45f 40f
11:36am 9 13 mph 1015.6mb 45f 40f
11:30am 7 10 mph 1015.8mb 45f 40f
11:24am 9 14 mph 1015.8mb 45f 40f
11:18am 6 10 mph 1016.3mb 45f 40f
11:12am 6 9 mph 1016.5mb 45f 40f
11:06am 7 9 mph 1017mb 45f 39f
11:00am 8 13 mph 1017mb 45f 39f
10:54am 8 10 mph 1017.2mb 45f 39f
10:48am 8 14 mph 1017.3mb 45f 39f
10:42am 8 10 mph 1017.5mb 45f 39f
10:36am 7 10 mph 1017.5mb 45f 39f
10:30am 6 9 mph 1017.6mb 45f 39f
10:24am 7 10 mph 1017.8mb 45f 39f
10:18am 7 11 mph 1018mb 45f 39f
10:12am 8 11 mph 1018mb 45f 38f
10:06am 8 11 mph 1018.3mb 45f 38f
10:00am 7 10 mph 1018.1mb 45f 38f
9:54am 8 13 mph 1018.1mb 46f 38f
9:48am 6 10 mph 1018.3mb 46f 38f
9:42am 7 11 mph 1018.4mb 46f 38f
9:36am 5 9 mph 1018.3mb 46f 38f
9:30am 6 10 mph 1018.5mb 46f 38f
9:24am 8 13 mph 1018.3mb 46f 38f
9:18am 8 10 mph 1018.4mb 46f 38f
9:12am 7 13 mph 1018.6mb 46f 38f
9:06am 7 8 mph 1018.6mb 46f 37f
9:00am 7 9 mph 1018.7mb 46f 37f
8:54am 7 10 mph 1018.7mb 46f 37f
8:48am 6 9 mph 1018.8mb 46f 37f
8:42am 7 8 mph 1018.8mb 46f 37f
8:36am 8 10 mph 1018.6mb 46f 37f
8:30am 6 9 mph 1018.9mb 46f 37f
8:24am 6 9 mph 1019.1mb 46f 36f
8:18am 7 9 mph 1019.3mb 46f 36f
8:12am 5 7 mph 1019.5mb 46f 36f
8:06am 5 6 mph 1019.5mb 46f 36f
8:00am 5 8 mph 1019.4mb 46f 36f
7:54am 3 5 mph 1019.6mb 46f 36f
7:48am 5 6 mph 1019.4mb 46f 35f
7:42am 3 6 mph 1019.6mb 46f 35f
7:36am 3 6 mph 1019.6mb 46f 34f
7:30am 3 5 mph 1019.6mb 46f 34f
7:24am 5 7 mph 1019.3mb 46f 34f
7:18am 6 7 mph 1019.4mb 46f 34f
7:12am 6 8 mph 1019.6mb 46f 33f
7:06am 6 9 mph 1019.6mb 46f 33f
7:00am 7 9 mph 1019.7mb 46f 33f
6:54am 6 9 mph 1019.6mb 45f 33f
6:48am 8 10 mph 1019.7mb 45f 33f
6:42am 9 11 mph 1019.8mb 45f 32f
6:36am 8 10 mph 1019.8mb 45f 32f
6:30am 9 13 mph 1019.7mb 45f 32f
6:24am 8 10 mph 1019.8mb 45f 32f
6:18am 8 11 mph 1019.8mb 45f 32f
6:12am 8 10 mph 1019.8mb 45f 32f
6:06am 7 9 mph 1019.8mb 45f 32f
6:00am 8 10 mph 1019.8mb 45f 32f
5:54am 7 9 mph 1019.9mb 45f 32f
5:48am 9 10 mph 1020mb 45f 32f
5:42am 9 13 mph 1020mb 45f 32f
5:36am 8 10 mph 1019.9mb 45f 32f
5:30am 9 13 mph 1019.9mb 45f 32f
5:24am 8 9 mph 1019.9mb 45f 31f
5:18am 9 10 mph 1020mb 45f 31f
5:12am 8 10 mph 1020.1mb 45f 31f
5:06am 9 11 mph 1020mb 45f 31f
5:00am 9 11 mph 1020mb 45f 31f
4:54am 8 10 mph 1020mb 45f 31f
4:48am 10 11 mph 1019.8mb 45f 31f
4:42am 9 10 mph 1019.8mb 45f 31f
4:36am 7 9 mph 1020mb 45f 31f
4:30am 8 10 mph 1020.1mb 45f 30f
4:24am 8 9 mph 1020.1mb 45f 30f
4:18am 9 11 mph 1020.3mb 45f 31f
4:12am 8 11 mph 1020.3mb 45f 31f
4:06am 9 10 mph 1020.2mb 45f 31f
4:00am 9 13 mph 1020.1mb 45f 31f
3:54am 8 10 mph 1020.1mb 45f 31f
3:48am 9 11 mph 1020.3mb 45f 31f
3:42am 10 14 mph 1020.6mb 45f 31f
3:36am 9 11 mph 1020.4mb 45f 31f
3:30am 10 13 mph 1020.5mb 45f 31f
3:24am 8 10 mph 1020.5mb 45f 31f
3:18am 8 11 mph 1020.7mb 45f 31f
3:12am 8 9 mph 1020.6mb 45f 31f
3:06am 8 10 mph 1020.6mb 44f 31f
3:00am 7 8 mph 1020.6mb 44f 31f
2:54am 8 10 mph 1020.5mb 44f 31f
2:48am 8 9 mph 1020.6mb 44f 31f
2:42am 8 10 mph 1020.7mb 43f 31f
2:36am 8 10 mph 1020.5mb 42f 31f
2:30am 8 10 mph 1020.7mb 41f 31f
2:24am 7 10 mph 1020.4mb 41f 31f
2:18am 8 9 mph 1020.4mb 40f 31f
2:12am 9 11 mph 1020.4mb 40f 31f
2:06am 7 9 mph 1020.2mb 40f 31f
2:00am 7 9 mph 1020.1mb 40f 31f
1:54am 8 11 mph 1020.2mb 40f 31f
1:48am 8 10 mph 1020.1mb 40f 31f
1:42am 9 11 mph 1020.2mb 41f -
1:36am 9 13 mph 1020.1mb 41f -
1:30am 8 9 mph 1020mb 41f 31f
1:24am 7 8 mph 1020mb 41f 31f
1:18am 7 9 mph 1019.9mb 41f 31f
1:12am 7 9 mph 1020mb 41f 31f
1:06am 7 8 mph 1020mb 41f 31f
1:00am 7 8 mph 1019.9mb 42f 31f
12:54am 6 7 mph 1019.9mb 42f 31f
12:48am 7 8 mph 1020mb 42f 32f
12:42am 7 8 mph 1020.1mb 42f -
12:36am 7 9 mph 1020.1mb 42f -
12:30am 7 9 mph 1019.9mb 42f 32f
12:24am 6 8 mph 1020.1mb 42f 32f
12:18am 7 8 mph 1020.1mb 43f 32f
12:12am 6 6 mph 1020.2mb 43f 32f
12:06am 6 7 mph 1020.3mb 43f 32f
12:00am 6 7 mph 1020.4mb 43f 32f
Thu 12/14 11:54pm 6 8 mph 1020.3mb 44f 32f
11:48pm 5 6 mph 1020.3mb 44f 32f
11:42pm 6 7 mph 1020.2mb 44f 32f
11:36pm 5 6 mph 1020mb 44f 33f
11:30pm 6 7 mph 1019.7mb 44f 33f
11:24pm 5 6 mph 1019.8mb 44f 33f
11:18pm 7 9 mph 1019.6mb 45f 34f
11:12pm 7 8 mph 1019.5mb 45f 34f
11:06pm 8 11 mph 1019.4mb 45f 34f
11:00pm 9 11 mph 1019.1mb 45f 34f
10:54pm 10 13 mph 1019mb 45f 34f
10:48pm 10 14 mph 1018.9mb 45f 35f
10:42pm 11 14 mph 1018.8mb 45f 34f
10:36pm 13 16 mph 1018.9mb 46f 34f
10:30pm 13 15 mph 1018.9mb 46f 34f
10:24pm 13 16 mph 1018.8mb 46f 35f
10:18pm 14 18 mph 1018.8mb 46f 35f
10:12pm 11 16 mph 1018.8mb 46f 35f
10:06pm 13 17 mph 1019mb 46f 35f
10:00pm 14 18 mph 1018.8mb 46f 35f
9:54pm 13 16 mph 1018.8mb 46f 35f
9:48pm 11 14 mph 1018.9mb 46f 35f
9:42pm 13 16 mph 1018.9mb 46f 35f
9:36pm 13 16 mph 1018.8mb 46f 35f
9:30pm 13 17 mph 1018.5mb 46f 35f
9:24pm 14 17 mph 1018.6mb 46f 35f
9:18pm 13 18 mph 1018.6mb 46f 35f
9:12pm 16 20 mph 1018.4mb 46f 35f
9:06pm 14 20 mph 1018.5mb 46f 35f
9:00pm 14 18 mph 1018.5mb 46f 35f
8:54pm 14 18 mph 1018.4mb 46f 36f
8:48pm 13 20 mph 1018.3mb 46f 36f
8:42pm 10 15 mph 1018.1mb 46f 36f
8:36pm 11 16 mph 1018.1mb 46f 36f
8:30pm 13 21 mph 1018mb 46f 35f
8:24pm 13 18 mph 1018.2mb 46f 35f
8:18pm 10 15 mph 1018.3mb 46f 36f
8:12pm 13 18 mph 1018.1mb 46f 35f
8:06pm 13 16 mph 1018mb 46f 35f
8:00pm 9 14 mph 1018mb 46f 35f
7:54pm 9 14 mph 1017.8mb 46f 35f
7:48pm 6 11 mph 1018mb 46f 35f
7:42pm 9 14 mph 1017.7mb 46f 35f
7:36pm 5 7 mph 1017.8mb 46f 35f
7:30pm 6 9 mph 1017.7mb 46f 35f
7:24pm 9 15 mph 1017.6mb 46f 35f
7:18pm 10 15 mph 1017.5mb 46f 36f
7:12pm 14 18 mph 1017.4mb 46f 36f
7:06pm 14 17 mph 1017.4mb 46f 36f
7:00pm 13 16 mph 1017.3mb 46f 36f
6:54pm 10 11 mph 1017.6mb 46f 36f
6:48pm 10 13 mph 1017.6mb 46f 36f
6:42pm 9 11 mph 1017.4mb 46f 36f
6:36pm 9 11 mph 1017.4mb 46f 36f
6:30pm 8 9 mph 1017.5mb 46f 37f
6:24pm 9 10 mph 1017.3mb 46f 36f
6:18pm 10 13 mph 1017mb 46f 37f
6:12pm 14 16 mph 1016.9mb 46f 37f
6:06pm 9 13 mph 1016.9mb 46f 37f
6:00pm 10 13 mph 1016.7mb 46f 37f
3:54pm 14 16 mph 1013.7mb 44f 40f
3:48pm 15 18 mph 1013.4mb 43f 40f
2:54pm 21 29 mph 1011.9mb 38f 40f
2:48pm 16 20 mph 1011.8mb 38f 40f
2:42pm 16 29 mph 1011.8mb 38f 40f
2:36pm 18 22 mph 1011.7mb 39f 40f
2:30pm 18 24 mph 1011.5mb 39f 40f
2:24pm 21 28 mph 1011.2mb 39f 41f
2:18pm 17 22 mph 1011.1mb 39f 41f
2:12pm 15 22 mph 1011mb 39f 41f
2:06pm 17 22 mph 1010.9mb 39f 41f
2:00pm 14 18 mph 1010.9mb 39f 41f
1:54pm 18 23 mph 1010.8mb 39f 41f
1:48pm 20 25 mph 1010.7mb 39f 40f
1:42pm 21 30 mph 1010.7mb 39f 40f
1:36pm 21 30 mph 1010.6mb 39f 40f
1:30pm 15 21 mph 1010.4mb 39f 40f
1:24pm 21 28 mph 1010mb 39f 40f
1:18pm 16 26 mph 1010.1mb 39f 40f
1:12pm 18 24 mph 1010.2mb 39f 41f
1:06pm 18 25 mph 1010.1mb 39f 41f
1:00pm 17 25 mph 1009.9mb 39f 41f
12:54pm 18 26 mph 1009.9mb 39f 41f
12:48pm 25 33 mph 1009.7mb 39f 41f
12:42pm 21 30 mph 1009.6mb 39f 43f
12:36pm 21 31 mph 1009.6mb 39f 43f
12:30pm 23 29 mph 1009.5mb 39f 43f
12:24pm 18 25 mph 1009.4mb 40f 43f
12:18pm 25 33 mph 1009.4mb 40f 43f
12:12pm 26 33 mph 1009.3mb 40f 43f
12:06pm 22 29 mph 1009.4mb 40f 44f
12:00pm 23 30 mph 1009.3mb 40f 43f
11:54am 23 30 mph 1009.2mb 40f 43f
11:48am 26 33 mph 1009mb 40f 43f
11:42am 25 36 mph 1008.9mb 41f 44f
11:36am 25 34 mph 1008.7mb 41f 44f
11:30am 24 32 mph 1008.6mb 41f 44f
11:24am 24 31 mph 1008.6mb 41f 44f
11:18am 23 29 mph 1008.4mb 42f 44f
11:12am 20 26 mph 1008.4mb 42f 44f
11:06am 18 25 mph 1008.3mb 42f 44f
11:00am 21 28 mph 1008.4mb 42f 44f
10:54am 22 29 mph 1008.3mb 43f 44f
10:48am 16 20 mph 1008.2mb 43f 44f
10:42am 16 24 mph 1008.1mb 43f 44f
10:18am 18 25 mph 1007.8mb 44f 43f
10:12am 18 24 mph 1007.7mb 44f 43f
10:06am 18 22 mph 1007.6mb 44f 43f
10:00am 18 25 mph 1007.5mb 44f 44f
9:54am 17 28 mph 1007.3mb 44f 44f
9:48am 14 21 mph 1007.2mb 44f 44f
9:42am 11 16 mph 1007mb 44f 43f
9:36am 11 20 mph 1006.8mb 44f 43f
9:30am 13 16 mph 1006.6mb 44f 43f
9:24am 14 18 mph 1006.3mb 44f 43f
9:18am 11 14 mph 1006.2mb 44f 42f
9:12am 11 15 mph 1006mb 44f 42f
9:06am 10 15 mph 1005.9mb 44f 42f
9:00am 8 13 mph 1005.7mb 44f 42f
8:54am 9 16 mph 1005.6mb 44f 42f
8:48am 13 17 mph 1005.5mb 44f 42f
8:42am 11 14 mph 1005.4mb 44f 42f
8:36am 10 14 mph 1005.2mb 44f 41f
8:30am 10 15 mph 1005.1mb 44f 41f
8:24am 9 14 mph 1005mb 44f 41f
8:18am 9 10 mph 1004.8mb 43f 41f
8:12am 9 13 mph 1004.2mb 43f 41f
8:06am 10 15 mph 1004mb 44f 41f
8:00am 8 10 mph 1003.7mb 43f 40f
7:54am 8 9 mph 1003.5mb 41f 40f
7:48am 9 10 mph 1003.3mb 41f 39f
7:42am 9 11 mph 1003.2mb 41f 39f
7:36am 8 10 mph 1003.1mb 43f 38f
7:30am 9 13 mph 1002.9mb 45f 38f
7:24am 10 13 mph 1002.8mb 46f 38f
7:18am 9 10 mph 1002.7mb 46f 38f
7:12am 9 13 mph 1002.6mb 46f 38f
7:06am 8 10 mph 1002.5mb 46f 38f
7:00am 8 10 mph 1002.5mb 46f 38f
6:54am 8 11 mph 1002.3mb 46f 38f
6:48am 9 11 mph 1002.2mb 46f 39f
6:42am 11 14 mph 1002.2mb 46f 39f
6:36am 11 13 mph 1002.1mb 46f 39f
6:30am 11 14 mph 1002mb 46f 39f
6:24am 11 14 mph 1002mb 46f 39f
6:18am 13 14 mph 1001.9mb 46f 39f
6:12am 13 16 mph 1001.8mb 46f 39f
6:06am 11 15 mph 1001.7mb 46f 39f
6:00am 13 15 mph 1001.6mb 46f 39f
5:54am 11 15 mph 1001.5mb 46f 39f
5:48am 13 15 mph 1001.5mb 46f 39f
5:42am 13 15 mph 1001.5mb 46f 39f
5:36am 11 14 mph 1001.4mb 46f 40f
5:30am 14 16 mph 1001.4mb 46f 40f
5:24am 14 17 mph 1001.3mb 46f 40f
5:18am 13 16 mph 1001.2mb 46f 40f
5:12am 13 15 mph 1001.2mb 46f 40f
5:06am 14 16 mph 1001.1mb 46f 40f
5:00am 13 15 mph 1001.1mb 46f 40f
4:54am 13 15 mph 1001.1mb 46f 40f
4:48am 14 17 mph 1001.1mb 46f 40f
4:42am 11 16 mph 1001.2mb 46f 40f
4:36am 13 17 mph 1001.3mb 45f 39f
4:30am 14 21 mph 1001.4mb 45f 40f
4:24am 14 18 mph 1001.4mb 45f 39f
4:18am 14 16 mph 1001.4mb 45f 39f
4:12am 16 20 mph 1001.4mb 45f 39f
4:06am 17 22 mph 1001.4mb 45f 39f
4:00am 14 21 mph 1001.5mb 45f 39f
3:54am 17 22 mph 1001.6mb 45f 40f
3:48am 18 24 mph 1001.7mb 44f 40f
3:42am 17 22 mph 1001.9mb 44f 40f
3:36am 17 22 mph 1001.8mb 43f 40f
3:30am 17 22 mph 1001.8mb 42f 40f
3:24am 15 20 mph 1001.8mb 42f 40f
3:18am 17 21 mph 1002mb 41f 40f
3:12am 18 22 mph 1002.1mb 40f 40f
3:06am 17 21 mph 1002.1mb 40f 40f
3:00am 21 29 mph 1002mb 38f 40f
2:54am 20 24 mph 1001.9mb 38f 40f
2:48am 24 31 mph 1002mb 37f 40f
2:42am 24 31 mph 1002.2mb 37f 40f
2:36am 21 28 mph 1002.2mb 37f 40f
2:30am 21 29 mph 1002.4mb 37f 40f
2:24am 21 28 mph 1002.5mb 37f 40f
2:18am 22 31 mph 1002.6mb 38f 40f
2:12am 21 28 mph 1002.8mb 38f 40f
2:06am 23 30 mph 1002.9mb 38f 40f
2:00am 20 23 mph 1002.9mb 38f 40f
1:54am 18 23 mph 1003.1mb 38f 40f
1:48am 16 22 mph 1003.2mb 38f 40f
1:42am 16 21 mph 1003mb 38f 38f
1:36am 14 17 mph 1003.1mb 38f 37f
1:30am 14 17 mph 1003.2mb 38f 37f
1:24am 16 21 mph 1003.3mb 38f 37f
1:18am 16 20 mph 1003.5mb 38f 36f
1:12am 15 18 mph 1003.6mb 38f 35f
1:06am 16 20 mph 1003.7mb 38f 35f
1:00am 16 20 mph 1003.9mb 38f 35f
12:54am 16 20 mph 1004.1mb 38f 35f
12:48am 16 20 mph 1004.3mb 38f 35f
12:42am 17 22 mph 1004.5mb - -
12:36am 18 22 mph 1004.6mb - -
12:30am 20 24 mph 1004.7mb 38f 35f
12:24am 20 23 mph 1004.8mb 38f 35f
12:18am 22 25 mph 1005.1mb 38f 35f
12:12am 23 28 mph 1005.3mb 39f 35f
12:06am 22 26 mph 1005.5mb 39f 34f
12:00am 21 25 mph 1005.7mb 39f 34f
Wed 12/13 11:54pm 18 22 mph 1005.9mb 39f 34f
11:48pm 17 22 mph 1006.1mb 39f 34f
11:42pm 13 16 mph 1006.2mb 39f 33f
11:36pm 15 18 mph 1006.5mb 39f 34f
11:30pm 18 23 mph 1006.5mb 39f 33f
11:24pm 20 26 mph 1006.7mb 39f 33f
11:18pm 18 29 mph 1006.9mb 39f 34f
11:12pm 20 25 mph 1007mb 39f 34f
11:06pm 16 21 mph 1006.9mb 39f 34f
11:00pm 15 20 mph 1007mb 39f 34f
10:54pm 16 22 mph 1007mb 40f 34f
10:48pm 23 28 mph 1007.3mb 40f 34f
10:42pm 18 22 mph 1007.1mb 40f 35f
10:36pm 16 20 mph 1006.9mb 40f 35f
10:30pm 18 23 mph 1006.9mb 40f 35f
10:24pm 20 26 mph 1007mb 40f 35f
10:18pm 10 13 mph 1007.2mb 41f 35f
10:12pm 14 18 mph 1007mb 41f 34f
10:06pm 18 23 mph 1007.3mb 42f 34f
10:00pm 15 21 mph 1007.7mb 42f 35f
9:54pm 15 21 mph 1007.8mb 42f 35f
9:48pm 16 23 mph 1008mb 43f 35f
9:42pm 13 17 mph 1007.9mb 43f 35f
9:36pm 11 14 mph 1008mb 43f 35f
9:30pm 11 14 mph 1008.1mb 43f 34f
9:24pm 10 14 mph 1008.3mb 43f 34f
9:18pm 8 10 mph 1008.4mb 44f 34f
9:12pm 10 13 mph 1008.2mb 44f 34f
9:06pm 9 11 mph 1008.3mb 44f 34f
9:00pm 10 13 mph 1008.6mb 44f 34f
8:54pm 10 14 mph 1008.5mb 44f 34f
8:48pm 10 13 mph - - -
8:42pm 9 13 mph 1008.6mb 45f 34f
8:36pm 9 11 mph 1008.5mb 45f 34f
8:30pm 11 14 mph 1008.7mb 45f 34f
8:24pm 10 13 mph 1008.9mb 45f 34f
8:18pm 11 15 mph 1008.8mb 45f 34f
8:12pm 11 14 mph 1008.8mb 45f 34f
8:06pm 8 11 mph 1008.6mb 45f 34f
8:00pm 11 15 mph 1008.7mb 45f 34f
7:54pm 8 11 mph 1008.5mb 45f 33f
7:48pm 10 13 mph 1008.7mb - -
7:42pm 8 10 mph 1008.7mb 45f 33f
7:36pm 9 11 mph 1008.9mb 45f 33f
7:30pm 8 10 mph 1008.7mb 44f 33f
7:24pm 8 11 mph 1009mb 44f 33f
7:18pm 8 9 mph 1009mb 44f 32f
7:12pm 8 10 mph 1008.9mb 44f 32f
7:06pm 6 7 mph 1008.5mb 44f 32f
7:00pm 7 9 mph 1008.8mb 44f 32f
6:54pm 6 7 mph 1008.6mb 43f 31f
6:48pm 7 8 mph 1009mb 43f 31f
6:42pm 6 9 mph 1009mb 44f 31f
6:36pm 7 8 mph 1009.2mb 45f 31f
6:30pm 7 9 mph 1009.2mb 46f 31f
6:24pm 6 8 mph 1009.1mb 46f 32f
6:18pm 5 7 mph 1009mb 46f 31f
6:12pm 7 9 mph 1009.4mb 46f 31f
6:06pm 6 8 mph 1009.3mb 46f 31f
6:00pm 8 9 mph 1009.1mb 46f 31f
5:54pm 7 9 mph 1009.4mb 46f 32f
5:48pm  -  mph 1009.3mb 46f 32f
5:42pm  -  mph 1009.2mb 46f 31f
5:36pm  -  mph 1009.3mb 46f 32f
5:30pm 7 9 mph 1009.2mb 46f 31f
5:24pm 8 10 mph 1009.3mb 45f 32f
5:18pm 8 10 mph 1009.4mb 45f 32f
5:12pm 8 11 mph 1009.4mb 44f 32f
5:06pm 9 10 mph 1009.3mb 45f 32f
5:00pm 8 13 mph 1008.8mb 45f 32f
4:54pm 10 15 mph 1008.5mb 45f 32f
4:48pm 10 13 mph 1008.8mb 45f 32f
4:42pm 9 13 mph 1009mb 45f 32f
4:36pm 9 11 mph 1008.9mb 45f 31f
4:30pm 7 10 mph 1008.7mb 45f 32f
4:24pm 11 14 mph 1008.9mb 45f 32f
4:18pm 11 15 mph 1008.9mb 45f 32f
4:12pm 10 14 mph 1008.9mb 44f 32f
4:06pm 11 14 mph 1008.9mb 44f 32f
4:00pm 17 24 mph 1008.9mb 44f 32f
3:54pm 14 20 mph 1009mb 44f 32f
3:48pm 11 15 mph 1009.1mb 43f 33f
3:42pm 14 17 mph 1009.1mb 43f 32f
3:36pm 13 18 mph 1009.1mb 42f 32f
3:30pm 13 18 mph 1009mb 41f 32f
3:24pm 14 18 mph 1009mb 41f 32f
3:18pm 14 22 mph 1009mb 40f 32f
3:12pm 15 18 mph 1009.1mb 40f 32f
3:06pm 8 14 mph 1009.2mb 40f 32f
3:00pm 15 21 mph 1009.1mb 40f 31f
2:54pm 16 21 mph 1009mb 40f 31f
2:48pm 14 20 mph 1009mb 40f 31f
2:42pm 13 23 mph 1009mb 40f 31f
2:36pm 15 21 mph 1008.9mb 40f 31f
2:30pm 16 24 mph 1008.9mb 40f 31f
2:24pm 17 24 mph 1008.9mb 40f 30f
2:18pm 16 23 mph 1008.8mb 40f 31f
2:12pm 17 23 mph 1008.8mb 40f 31f
2:06pm 17 25 mph 1008.8mb 40f 30f
2:00pm 18 25 mph 1008.7mb 40f 30f
1:54pm 15 23 mph 1008.6mb 40f 30f
1:48pm 15 21 mph 1008.6mb 40f 30f
1:42pm 20 26 mph 1008.6mb 40f 30f
1:36pm 17 21 mph 1008.7mb 40f 30f
1:30pm 17 24 mph 1008.8mb 41f 30f
1:24pm 21 32 mph 1008.6mb 41f 29f
1:18pm 17 23 mph 1008.8mb 41f 30f
1:12pm 21 30 mph 1008.8mb 41f 29f
1:06pm 16 25 mph 1008.8mb 41f 30f
1:00pm 20 28 mph 1009.1mb 41f 29f
12:54pm 15 22 mph 1009mb 41f 29f
12:48pm 16 25 mph 1008.9mb 41f 29f
12:42pm 22 29 mph 1008.7mb 41f 29f
12:36pm 18 24 mph 1008.8mb 41f 28f
12:30pm 14 23 mph 1008.8mb 41f 29f
12:24pm 20 24 mph 1008.8mb 41f 28f
12:18pm 22 30 mph 1008.8mb 41f 28f
12:12pm 20 26 mph 1008.8mb 42f 28f
12:06pm 22 30 mph 1008.9mb 42f 28f
12:00pm 16 22 mph 1009mb 42f 28f
11:54am 20 28 mph 1009mb 42f 28f
11:48am 20 26 mph 1009.1mb 42f 27f
11:42am 22 31 mph 1009.3mb 42f 28f
11:36am 18 26 mph 1009.3mb 42f 27f
11:30am 21 26 mph 1009.3mb 42f 28f
11:24am 21 28 mph 1009.4mb 43f 27f
11:18am 16 22 mph 1009.4mb 43f 27f
11:12am 17 23 mph 1009.5mb 43f 28f
11:06am 23 36 mph 1009.4mb 43f 28f
11:00am 21 29 mph 1009.6mb 43f 27f
10:54am 21 29 mph 1009.6mb 43f 27f
10:48am 20 26 mph 1009.7mb 43f 27f
10:42am 22 30 mph 1009.8mb 44f 27f
10:36am 23 33 mph 1009.7mb 44f 27f
10:30am 20 30 mph 1009.7mb 44f 26f
10:24am 18 24 mph 1009.8mb 44f 27f
10:18am 21 28 mph 1009.8mb 44f 26f
10:12am 20 26 mph 1009.7mb 44f 26f
10:06am 24 32 mph 1009.7mb 45f 26f
10:00am 20 31 mph 1009.8mb 45f 26f
9:54am 21 28 mph 1009.7mb 45f 26f
9:48am 23 33 mph 1009.7mb 45f 26f
9:42am 22 31 mph 1010mb 45f 26f
9:36am 22 33 mph 1009.9mb 46f 26f
9:30am 22 31 mph 1009.9mb 46f 26f
9:24am 21 30 mph 1009.9mb 46f 26f
9:18am 15 24 mph 1010mb 46f 26f
9:12am 22 34 mph 1009.9mb 46f 26f
9:06am 25 36 mph 1009.8mb 46f 25f
9:00am 23 31 mph 1009.8mb 46f 25f
8:54am 23 30 mph 1009.8mb 46f 25f
8:48am 22 29 mph 1009.6mb 46f 25f
8:42am 18 26 mph 1009.8mb 46f 25f
8:36am 15 21 mph 1009.7mb 46f 25f
8:30am 14 22 mph 1009.7mb 47f 25f
8:24am 20 29 mph 1009.5mb 47f 24f
8:18am 14 20 mph 1009.5mb 47f 25f
8:12am 15 18 mph 1009.4mb 47f 25f
8:06am 16 23 mph 1009.3mb 47f 25f
8:00am 14 18 mph 1009.3mb 47f 25f
7:54am 13 20 mph 1009.3mb 47f 25f
7:48am 14 21 mph 1009.4mb 47f 24f
7:42am 13 16 mph 1009.3mb 47f 25f
7:36am 15 21 mph 1009.2mb 47f 24f
7:30am 14 22 mph 1009.1mb 46f 24f
7:24am 14 21 mph 1009.1mb 46f 24f
7:18am 20 29 mph 1009mb 46f 24f
7:12am 16 23 mph 1009mb 46f 24f
7:06am 16 23 mph 1008.9mb 46f 24f
7:00am 15 21 mph 1008.9mb 46f 24f
6:54am 13 20 mph 1008.9mb 47f 24f
6:48am 14 22 mph 1008.8mb 47f 24f
6:42am 13 24 mph 1008.8mb 47f 24f
6:36am 18 23 mph 1008.7mb 47f 25f
6:30am 18 25 mph 1008.7mb 47f 24f
6:24am 14 23 mph 1008.6mb 46f 24f
6:18am 9 13 mph 1008.5mb 46f 24f
6:12am 11 18 mph 1008.3mb 46f 24f
6:06am 17 23 mph 1008.2mb 46f 24f
6:00am 14 18 mph 1008.1mb 46f 24f
5:54am 17 23 mph 1007.9mb 46f 24f
5:48am 18 26 mph 1007.8mb 47f 24f
5:42am 18 24 mph 1007.7mb 47f 25f
5:36am 18 24 mph 1007.7mb 47f 25f
5:30am 16 24 mph 1007.6mb 47f 25f
5:24am 22 29 mph 1007.4mb 47f 25f
5:18am 16 32 mph 1007.6mb 47f 24f
5:12am 17 25 mph 1007.5mb 47f 24f
5:06am 14 24 mph 1007.5mb 47f 24f
5:00am 18 25 mph 1007.3mb 47f 24f
4:54am 11 18 mph 1007.5mb 47f 24f
4:48am 14 21 mph 1007.4mb 47f 24f
4:42am 15 24 mph 1007.3mb 47f 24f
4:36am 17 25 mph 1007.1mb 47f 24f
4:30am 15 20 mph 1007mb 47f 24f
4:24am 11 17 mph 1007mb 47f 25f
4:18am 14 16 mph 1007mb 47f 25f
4:12am 15 20 mph 1006.9mb 47f 25f
4:06am 18 28 mph 1006.9mb 47f 25f
4:00am 21 26 mph 1006.9mb 47f 25f
3:54am 21 30 mph 1006.8mb 47f 25f
3:48am 22 32 mph 1006.7mb 47f 26f
3:42am 16 22 mph 1006.7mb 47f 26f
3:36am 20 28 mph 1006.6mb 47f 25f
3:30am 16 23 mph 1006.7mb 47f 26f
3:24am 24 30 mph 1006.7mb 47f 26f
3:18am 15 23 mph 1006.7mb 47f 26f
3:12am 18 30 mph 1006.6mb 47f 26f
3:06am 21 25 mph 1006.7mb 47f 26f
3:00am 22 29 mph 1006.6mb 47f 26f
2:54am 22 34 mph 1006.4mb 47f 26f
2:48am 18 24 mph 1006.4mb 47f 26f
2:42am 20 26 mph 1006.3mb 47f 27f
2:36am 21 29 mph 1006.3mb 46f 26f
2:30am 22 30 mph 1006.3mb 46f 26f
2:24am 17 22 mph 1006.2mb 46f 27f
2:18am 20 28 mph 1006.1mb 46f 26f
2:12am 16 25 mph 1006mb 45f 27f
2:06am 23 31 mph 1005.8mb 45f 27f
2:00am 21 29 mph 1005.7mb 45f 27f
1:54am 21 28 mph 1005.7mb 44f 27f
1:48am 22 33 mph 1005.7mb 44f 27f
1:42am 23 31 mph 1005.5mb 44f 27f
1:36am 24 34 mph 1005.5mb 44f 28f
1:30am 21 28 mph 1005.2mb 44f 28f
1:24am 20 26 mph 1005.1mb 44f 28f
1:18am 17 22 mph 1005.1mb 44f 28f
1:12am 18 25 mph 1004.9mb 44f 28f
1:06am 23 29 mph 1004.8mb 44f 28f
1:00am 28 33 mph 1004.7mb 45f 28f
12:54am 21 32 mph 1004.7mb 45f 29f
12:48am 21 26 mph 1004.7mb 45f -
12:42am 23 31 mph 1004.6mb 45f -
12:36am 24 36 mph 1004.6mb 45f -
12:30am 24 37 mph 1004.6mb 45f 29f
12:24am 20 26 mph 1004.5mb 45f 29f
12:18am 23 30 mph 1004.4mb 45f 29f
12:12am 21 26 mph 1004.3mb 45f 29f
12:06am 17 29 mph 1004.1mb 45f 29f
12:00am 21 29 mph 1003.9mb 46f 29f
Tue 12/12 11:54pm 21 30 mph 1003.8mb 46f 29f
11:48pm 21 26 mph 1003.8mb 46f 30f
11:42pm 21 29 mph 1003.7mb 46f 30f
11:36pm 23 31 mph 1003.7mb 46f 30f
11:30pm 22 28 mph 1003.6mb 46f 30f
11:24pm 29 40 mph 1003.4mb 46f 30f
11:18pm 28 34 mph 1003.2mb 46f 31f
11:12pm 21 28 mph 1003.1mb 46f 31f
11:06pm 22 28 mph 1003mb 46f 31f
11:00pm 21 25 mph 1003mb 46f 32f
10:54pm 28 37 mph 1002.8mb 47f 32f
10:48pm 22 30 mph - - -
10:42pm 30 38 mph 1002.4mb 47f 33f
10:36pm 28 38 mph 1002.2mb 47f 33f
10:30pm 23 33 mph 1002.2mb 47f 34f
10:24pm 24 31 mph 1002.1mb 47f 34f
10:18pm 25 36 mph 1002.1mb 47f 34f
10:12pm 29 37 mph 1001.9mb 47f 34f
10:06pm 31 45 mph 1001.8mb 47f 35f
10:00pm 24 40 mph 1001.6mb 47f 35f
9:54pm 30 38 mph 1001.6mb 48f 35f
9:48pm 28 36 mph 1001.6mb 48f 36f
9:42pm 23 32 mph 1001.3mb 48f 36f
9:36pm 21 29 mph 1001.2mb 48f 37f
9:30pm 25 33 mph 1001mb 48f 37f
9:24pm 25 32 mph 1000.9mb 48f 38f
9:18pm 25 36 mph 1000.7mb 48f 38f
9:12pm 23 30 mph 1000.6mb 48f 38f
9:06pm 24 31 mph 1000.5mb 48f 38f
9:00pm 22 29 mph 1000.5mb 48f 39f
8:54pm 23 32 mph 1000.5mb 49f 39f
8:48pm 23 31 mph 1000.5mb 49f 39f
8:42pm 23 31 mph 1000.5mb 49f 39f
8:36pm 25 37 mph 1000.6mb 49f 39f
8:30pm 24 28 mph 1000.8mb 49f 39f
8:24pm 21 26 mph 1001mb 49f 40f
8:18pm 23 31 mph - - -
8:12pm 23 29 mph 1001mb 49f 40f
8:06pm 29 38 mph 1001mb 49f 40f
8:00pm 22 29 mph 1001mb 49f 41f
7:54pm 22 34 mph 1000.8mb 49f 41f
7:48pm 21 29 mph 1000.7mb 49f 41f
7:42pm 22 29 mph 1000.5mb 49f 42f
7:36pm 18 23 mph 1000.3mb 49f 42f
7:30pm 18 25 mph 1000.2mb 49f 42f
7:24pm 9 11 mph 1000.1mb 49f 42f
7:18pm 9 13 mph - - -
7:12pm 8 10 mph 1000mb 49f 42f
7:06pm 8 10 mph 1000mb 49f 42f
7:00pm 7 9 mph 1000.1mb 49f 42f
6:54pm 9 10 mph 1000.1mb 49f 42f
6:48pm 9 10 mph 1000.3mb 49f 42f
6:42pm 10 14 mph 1000.3mb 49f 42f
6:36pm 13 15 mph 1000.3mb 49f 42f
6:30pm 9 14 mph 1000.3mb 49f 42f
6:24pm 8 11 mph 1000.3mb 49f 42f
6:18pm 7 9 mph 1000.2mb 49f 42f
6:12pm 6 7 mph 1000.1mb 49f 42f
6:06pm 6 6 mph 1000.1mb 49f 42f
6:00pm 6 8 mph 1000.1mb 49f 42f
5:54pm 6 7 mph 1000mb 49f 42f
5:48pm 6 6 mph 1000mb 49f 42f
5:42pm 6 7 mph 1000.1mb 49f 42f
5:36pm 6 7 mph 1000.1mb 49f 42f
5:30pm 6 7 mph 1000mb 49f 42f
5:24pm 5 6 mph 1000mb 49f 42f
5:18pm 6 6 mph 1000mb 49f 42f
5:12pm 6 7 mph 1000.1mb 49f 42f
5:06pm 5 7 mph 1000.1mb 49f 42f
5:00pm 5 6 mph 1000.1mb 49f 42f
4:54pm 6 7 mph 1000.1mb 49f 42f
4:48pm 5 6 mph - - -
4:42pm 6 7 mph 1000mb 49f 43f
4:36pm 5 5 mph 1000mb 49f 43f
4:30pm 5 6 mph 999.9mb 49f 42f
4:24pm 5 6 mph 999.9mb 49f 42f
4:18pm 3 5 mph 999.9mb 48f 42f
4:12pm 6 6 mph 1000.1mb 48f 43f
4:06pm 7 9 mph 1000.1mb 48f 43f
4:00pm 10 14 mph 1000.2mb 48f 43f
3:54pm 10 13 mph 1000.2mb 48f 43f
3:48pm 14 18 mph 1000.1mb 48f 44f
3:42pm 13 21 mph 1000mb 48f 44f
3:36pm 15 21 mph 999.8mb 48f 45f
3:30pm 16 21 mph 999.8mb 48f 45f
3:24pm 15 22 mph 999.6mb 48f 46f
3:18pm 15 21 mph 999.5mb 48f 47f
3:12pm 11 14 mph 999.4mb 48f 47f
3:06pm 13 17 mph 999.3mb 48f 48f
3:00pm 9 13 mph 999.2mb 48f 48f
2:54pm 9 14 mph 999.2mb 48f 48f
2:48pm 8 13 mph 999.1mb 48f 48f
2:42pm 7 9 mph 999.1mb 48f 48f
2:36pm 8 10 mph 999mb 48f 48f
2:30pm 9 11 mph 999mb 48f 48f
2:24pm 9 13 mph 999mb 48f 48f
2:18pm 8 11 mph 999mb 48f 48f
2:12pm 9 13 mph 998.9mb 48f 48f
2:06pm 6 7 mph 999mb 48f 48f
2:00pm 7 9 mph 999mb 48f 48f
1:54pm 8 13 mph 998.9mb 48f 48f
1:48pm 7 9 mph 999.1mb 48f 48f
1:42pm 9 14 mph 999.1mb 47f 48f
1:36pm 8 11 mph 999.3mb 47f 48f
1:30pm 10 14 mph 999.4mb 47f 48f
1:24pm 9 14 mph 999.5mb 47f 48f
1:18pm 11 14 mph 999.6mb 47f 48f
1:12pm 10 13 mph 999.6mb 46f 48f
1:06pm 8 11 mph 999.6mb 46f 48f
1:00pm 10 15 mph 999.6mb 46f 48f
12:54pm 11 15 mph 999.7mb 46f 47f
12:48pm 7 10 mph 999.7mb 46f 47f
12:42pm 9 11 mph 999.8mb 47f 47f
12:36pm 11 16 mph 999.9mb 47f 47f
12:30pm 8 11 mph 1000mb 47f 47f
12:24pm 9 13 mph 1000.2mb 48f 47f
12:18pm 10 13 mph 1000.2mb 48f 47f
12:12pm 10 13 mph 1000.4mb 48f 47f
12:06pm 9 13 mph 1000.4mb 48f 47f
12:00pm 13 16 mph 1000.4mb 48f 47f
11:54am 11 14 mph 1000.5mb 48f 47f
11:48am 10 14 mph 1000.6mb 48f 47f
11:42am 9 11 mph 1000.7mb 48f 47f
11:36am 8 11 mph 1000.7mb 48f 47f
11:30am 9 11 mph 1000.7mb 48f 47f
11:24am 10 14 mph 1000.8mb 48f 47f
11:18am 13 17 mph 1000.9mb 48f 47f
11:12am 14 17 mph 1000.9mb 48f 47f
11:06am 14 16 mph 1001mb 48f 47f
11:00am 14 16 mph 1001.3mb 48f 47f
10:54am 14 17 mph 1001.4mb 48f 47f
10:48am 13 14 mph 1001.6mb 48f 47f
10:42am 10 14 mph 1001.7mb 48f 47f
10:36am 13 16 mph 1002mb 48f 47f
10:30am 11 15 mph 1002.1mb 48f 47f
10:24am 11 13 mph 1002.2mb 48f 47f
10:18am 13 16 mph 1002.4mb 48f 47f
10:12am 14 17 mph 1002.3mb 48f 46f
10:06am 16 18 mph 1002.4mb 48f 46f
10:00am 16 18 mph 1002.4mb 48f 46f
9:54am 18 21 mph 1002.4mb 48f 46f
9:48am 16 21 mph 1002.5mb 48f 47f
9:42am 18 22 mph 1002.4mb 48f 47f
9:36am 18 22 mph 1002.5mb 48f 47f
9:30am 18 23 mph 1002.8mb 48f 47f
9:24am 17 22 mph 1002.8mb 48f 48f
9:18am 18 22 mph 1002.9mb 49f 48f
9:12am 16 21 mph 1003mb 49f 48f
9:06am 17 23 mph 1003mb 49f 48f
9:00am 15 18 mph 1003.2mb 49f 48f
8:54am 14 17 mph 1003.4mb 49f 47f
8:48am 16 20 mph 1003.4mb 49f 47f
8:42am 15 18 mph 1003.5mb 49f 47f
8:36am 15 18 mph 1003.5mb 49f 48f
8:30am 15 17 mph 1003.5mb 49f 48f
8:24am 13 15 mph 1003.6mb 49f 48f
8:18am 13 16 mph 1003.8mb 49f 48f
8:12am 13 17 mph 1004mb 49f 49f
8:06am 14 16 mph 1004.1mb 49f 49f
8:00am 15 20 mph 1004.2mb 49f 49f
7:54am 20 24 mph 1004.2mb 49f 50f
7:48am 20 23 mph 1004.4mb 49f 50f
7:42am 16 21 mph 1004.3mb 49f 50f
7:36am 17 22 mph 1004.3mb 49f 50f
7:30am 15 20 mph 1004.6mb 49f 49f
7:24am 15 17 mph 1004.7mb 49f 49f
7:18am 15 16 mph 1004.8mb 49f 49f
7:12am 15 18 mph 1004.9mb 49f 49f
7:06am 16 18 mph 1005.1mb 49f 49f
7:00am 14 16 mph 1005.3mb 49f 48f
6:54am 13 15 mph 1005.4mb 49f 48f
6:48am 14 17 mph 1005.5mb 49f 48f
6:42am 14 17 mph 1005.6mb 49f 47f
6:36am 11 14 mph 1006mb 49f 48f
6:30am 13 15 mph 1006.2mb 49f 48f
6:24am 15 18 mph 1006.2mb 49f 49f
6:18am 17 22 mph 1006.2mb 49f 49f
6:12am 17 22 mph 1006.2mb 49f 49f
6:06am 20 24 mph 1006.2mb 49f 50f
6:00am 18 22 mph 1006.1mb 49f 50f
5:54am 20 23 mph 1006.3mb 49f 50f
5:48am 21 24 mph 1006.5mb 49f 50f
5:42am 17 24 mph 1006.3mb 49f 50f
5:36am 16 24 mph 1006.3mb 49f 49f
5:30am 15 22 mph 1006.6mb 49f 49f
5:24am 17 21 mph 1007mb 49f 49f
5:18am 17 21 mph 1007.3mb 49f 49f
5:12am 16 18 mph 1007.5mb 49f 49f
5:06am 14 16 mph 1007.8mb 49f 48f
5:00am 14 17 mph 1007.9mb 49f 48f
4:54am 14 16 mph 1007.9mb 49f 48f
4:48am 17 21 mph 1008mb 49f 49f
4:42am 16 20 mph 1008.1mb 49f 49f
4:36am 17 20 mph 1008.2mb 49f 49f
4:30am 15 18 mph 1008.3mb 49f 48f
4:24am 9 11 mph 1008.5mb 49f 46f
4:18am 10 11 mph 1008.8mb 49f 46f
4:12am 10 13 mph 1009mb 49f 46f
4:06am 10 13 mph 1009.1mb 49f 47f
4:00am 11 14 mph 1009.2mb 49f 47f
3:54am 11 14 mph 1009.4mb 49f 47f
3:48am 11 14 mph 1009.5mb 49f 47f
3:42am 13 16 mph 1009.6mb 49f 48f
3:36am 15 18 mph 1009.8mb 48f 48f
3:30am 15 18 mph 1009.9mb 48f 48f
3:24am 15 18 mph 1010.2mb 48f 48f
3:18am 15 17 mph 1010.4mb 48f 48f
3:12am 21 24 mph 1010.3mb 48f 49f
3:06am 21 24 mph 1010.6mb 48f 49f
3:00am 21 23 mph 1010.6mb 48f 49f
2:54am 18 23 mph 1010.6mb 48f 49f
2:48am 17 25 mph 1010.5mb 48f 49f
2:42am 21 24 mph 1010.6mb 48f 49f
2:36am 21 26 mph 1010.8mb 48f 49f
2:30am 18 23 mph 1010.9mb 48f 49f
2:24am 21 25 mph 1011mb 48f 49f
2:18am 21 25 mph 1011.4mb 48f 49f
2:12am 21 25 mph 1011.5mb 48f 49f
2:06am 22 25 mph 1011.6mb 48f 49f
2:00am 21 26 mph 1011.6mb 48f 48f
1:54am 18 23 mph 1011.8mb 48f 48f
1:48am 20 23 mph 1012mb 48f -
1:42am 18 24 mph 1012.1mb 48f -
1:36am 17 22 mph 1012.1mb 48f -
1:30am 14 21 mph 1012mb 48f 48f
1:24am 14 20 mph 1012mb 47f 48f
1:18am 15 22 mph 1012mb 47f 48f
1:12am 16 22 mph 1012.1mb 47f 48f
1:06am 15 22 mph 1012.2mb 47f 48f
1:00am 16 23 mph 1012.4mb 47f 48f
12:54am 15 22 mph 1012.5mb 46f 48f
12:48am 14 22 mph 1012.6mb 45f 47f
12:42am 17 23 mph 1012.8mb 44f 47f
12:36am 14 21 mph 1013mb 44f 47f
12:30am 13 20 mph 1013.1mb 43f 47f
12:24am 13 18 mph 1013.2mb 43f 47f
12:18am 15 18 mph 1013.5mb 43f 47f
12:12am 17 21 mph 1013.6mb 43f 47f
12:06am 13 22 mph 1013.7mb 43f 47f
12:00am 14 20 mph 1013.9mb 43f 47f
Mon 12/11 11:54pm 14 20 mph 1014mb 43f 47f
11:48pm 14 18 mph 1014.2mb 43f 47f
11:42pm 14 18 mph 1014.4mb 43f 47f
11:36pm 14 18 mph 1014.5mb 43f 47f
11:30pm 15 18 mph 1014.7mb 43f 47f
11:24pm 16 18 mph 1014.8mb 44f 47f
11:18pm 17 20 mph 1014.9mb 44f 47f
11:12pm 15 18 mph 1015mb 44f 47f
11:06pm 14 17 mph 1015mb 44f 47f
11:00pm 13 17 mph 1015mb 44f 46f
10:54pm 10 11 mph 1015mb 44f 45f
10:48pm 9 11 mph - - -
10:42pm 9 11 mph 1015.4mb 44f 44f
10:36pm 8 10 mph 1015.4mb 44f 44f
10:30pm 8 10 mph 1015.5mb 44f 44f
10:24pm 8 10 mph 1015.6mb 44f 44f
10:18pm 8 10 mph 1015.6mb 44f 44f
10:12pm 8 10 mph 1015.7mb 45f 44f
10:06pm 9 11 mph 1015.7mb 45f 44f
10:00pm 8 9 mph 1015.8mb 45f 43f